Airfield :
LOGIN :

Register | Disclaimer

   EN    FR    IT 

 










Legend :    VFR   Marginal VFR   IFR   Intensive IFR   Very Intensive IFR
Visi :
Ceiling :
>= 8 km
>= 3000ft
5 to 8 km
1000 to 3000 ft
1500m to 5 km
500 to 1000 ft
800 to 1500m
200 to 500 ft
< 800m
< 200 ft
Symbols :   Thunderstorms  Fog  Heavy snow  Heavy precipitations  Wind > 20 kt
SIGMETs :     Misc.  Thunderstorms  Icing  Turbulence  Mountain Waves  Volcanic Ashes






- Airport Elevation : 2119 ft


LERL - Central

CURRENT METAR :
  • 181130Z 18007KT 110V270 9999 FEW041 SCT045 24/12 Q1014

EXPIRED METARs :
  • 181100Z 26004KT 9999 FEW034 BKN042 22/13 Q1014
  • 181030Z 25005KT 9999 FEW035 SCT045 22/14 Q1014
  • 181000Z 27004KT 9999 FEW038 SCT048 21/14 Q1014
  • 180930Z 29004KT 220V330 9999 FEW033 BKN042 20/14 Q1014
  • 180900Z 31003KT 250V010 9999 FEW035 SCT042 20/13 Q1014

TAF TAF LERL
Valid from the 18 at 09:00 until the 19 at 09:00 UTC


180800Z 1809/1909 19008KT 9999 BKN040 TX27/1815Z TN14/1905Z
PROB40
TEMPO 1810/1819 OVC035CB



MET'MAP, your aeronautical weather chart ! - Copyright ORBIFLY December 2007 - Disclaimer

ORBIFLY MET'MAP TEAM :

Programming & Development : Alexandra Zaïnal
Concept & original design : Baudouin d'Aumeries
Assistance for programming : Marc-Olivier Méhu
Technical & hardware support : Manuel Goepfert

Contact : metmap@orbifly.com




SOURCES & CREDITS :

   NOAA